createdAt,value
2023-04-18T00:00:24.842Z,9.90
2023-04-18T00:02:55.079Z,9.78
2023-04-18T00:05:23.529Z,9.81
2023-04-18T00:07:52.979Z,9.71
2023-04-18T00:10:22.128Z,9.74
2023-04-18T00:12:49.924Z,9.49
2023-04-18T00:15:18.507Z,9.72
2023-04-18T00:17:46.329Z,9.68
2023-04-18T00:20:14.293Z,9.20
2023-04-18T00:22:43.993Z,9.28
2023-04-18T00:25:11.963Z,9.26
2023-04-18T00:27:43.038Z,9.29
2023-04-18T00:30:12.054Z,9.38
2023-04-18T00:32:39.813Z,9.06
2023-04-18T00:35:08.242Z,8.76
2023-04-18T00:37:36.014Z,8.97
2023-04-18T00:40:05.618Z,8.90
2023-04-18T00:42:33.900Z,8.79
2023-04-18T00:45:03.096Z,8.84
2023-04-18T00:47:30.832Z,9.06
2023-04-18T00:49:59.384Z,8.55
2023-04-18T00:52:28.751Z,8.78
2023-04-18T00:54:57.265Z,8.69
2023-04-18T00:57:25.913Z,8.90
2023-04-18T00:59:53.724Z,8.61
2023-04-18T01:02:23.166Z,8.27
2023-04-18T01:04:52.122Z,8.28
2023-04-18T01:07:20.128Z,8.29
2023-04-18T01:09:49.031Z,8.38
2023-04-18T01:12:16.795Z,8.23
2023-04-18T01:14:44.846Z,8.08
2023-04-18T01:17:13.578Z,8.35
2023-04-18T01:19:42.947Z,8.36
2023-04-18T01:22:14.317Z,8.26
2023-04-18T01:24:43.310Z,8.46
2023-04-18T01:27:13.374Z,8.26
2023-04-18T01:29:41.389Z,8.21
2023-04-18T01:32:09.208Z,8.02
2023-04-18T01:34:36.855Z,8.26
2023-04-18T01:37:04.468Z,8.33
2023-04-18T01:39:32.558Z,8.44
2023-04-18T01:42:02.728Z,8.43
2023-04-18T01:44:30.528Z,8.10
2023-04-18T01:46:58.356Z,8.03
2023-04-18T01:49:26.084Z,7.89
2023-04-18T01:51:53.712Z,7.89
2023-04-18T01:54:21.331Z,7.68
2023-04-18T01:56:49.203Z,7.85
2023-04-18T01:59:18.248Z,7.95
2023-04-18T02:01:46.387Z,7.90
2023-04-18T02:04:14.405Z,7.91
2023-04-18T02:06:42.157Z,7.83
2023-04-18T02:09:09.721Z,7.89
2023-04-18T02:11:37.417Z,7.85
2023-04-18T02:14:06.016Z,7.78
2023-04-18T02:16:35.086Z,7.67
2023-04-18T02:19:04.313Z,7.35
2023-04-18T02:21:31.948Z,7.56
2023-04-18T02:23:59.588Z,7.80
2023-04-18T02:26:27.214Z,7.49
2023-04-18T02:28:54.947Z,7.69
2023-04-18T02:31:22.618Z,7.64
2023-04-18T02:33:51.616Z,7.73
2023-04-18T02:36:19.280Z,7.78
2023-04-18T02:38:46.966Z,7.93
2023-04-18T02:41:17.393Z,7.94
2023-04-18T02:43:45.053Z,8.10
2023-04-18T02:46:13.147Z,8.15
2023-04-18T02:48:41.267Z,8.09
2023-04-18T02:51:10.877Z,8.15
2023-04-18T02:53:38.592Z,8.31
2023-04-18T02:56:09.302Z,8.23
2023-04-18T02:58:37.030Z,8.02
2023-04-18T03:01:05.301Z,8.19
2023-04-18T03:03:33.156Z,8.22
2023-04-18T03:06:01.251Z,8.42
2023-04-18T03:08:30.471Z,8.33
2023-04-18T03:10:58.190Z,8.60
2023-04-18T03:13:26.153Z,8.40
2023-04-18T03:15:54.043Z,8.53
2023-04-18T03:18:21.972Z,8.59
2023-04-18T03:20:49.769Z,8.35
2023-04-18T03:23:17.852Z,8.23
2023-04-18T03:25:47.260Z,8.58
2023-04-18T03:28:15.140Z,8.51
2023-04-18T03:30:43.324Z,8.45
2023-04-18T03:33:11.138Z,8.38
2023-04-18T03:35:38.916Z,8.31
2023-04-18T03:38:07.032Z,8.46
2023-04-18T03:40:34.826Z,8.47
2023-04-18T03:43:03.999Z,8.56
2023-04-18T03:45:34.073Z,8.59
2023-04-18T03:48:01.805Z,8.67
2023-04-18T03:50:29.853Z,8.43
2023-04-18T03:52:57.649Z,8.35
2023-04-18T03:55:26.806Z,8.41
2023-04-18T03:57:54.481Z,8.41
2023-04-18T04:00:23.839Z,8.32
2023-04-18T04:02:51.581Z,7.94
2023-04-18T04:05:19.474Z,8.00
2023-04-18T04:07:47.627Z,7.92
2023-04-18T04:10:15.484Z,7.70
2023-04-18T04:12:43.273Z,7.58
2023-04-18T04:15:12.745Z,7.77
2023-04-18T04:17:42.369Z,7.57
2023-04-18T04:20:11.352Z,7.69
2023-04-18T04:22:39.292Z,7.72
2023-04-18T04:25:07.905Z,7.70
2023-04-18T04:27:36.812Z,7.78
2023-04-18T04:30:07.486Z,7.80
2023-04-18T04:32:35.576Z,7.62
2023-04-18T04:35:05.313Z,7.76
2023-04-18T04:37:33.557Z,7.87
2023-04-18T04:40:01.604Z,7.64
2023-04-18T04:42:29.364Z,7.70
2023-04-18T04:44:57.176Z,7.67
2023-04-18T04:47:26.017Z,7.55
2023-04-18T04:49:53.699Z,7.75
2023-04-18T04:52:22.773Z,7.70
2023-04-18T04:54:52.355Z,7.56
2023-04-18T04:57:20.147Z,7.72
2023-04-18T04:59:47.855Z,7.67
2023-04-18T05:02:15.555Z,7.76
2023-04-18T05:04:43.356Z,7.61
2023-04-18T06:19:41.746Z,8.47
2023-04-18T06:22:09.412Z,8.81
2023-04-18T06:24:37.498Z,8.65
2023-04-18T06:27:09.384Z,8.55
2023-04-18T06:29:44.085Z,8.58
2023-04-18T06:32:11.920Z,8.69
2023-04-18T06:34:41.272Z,8.45
2023-04-18T06:37:08.986Z,8.34
2023-04-18T06:39:36.823Z,8.47
2023-04-18T06:42:04.892Z,8.30
2023-04-18T06:44:33.058Z,8.57
2023-04-18T06:47:00.857Z,8.67
2023-04-18T06:49:28.584Z,8.43
2023-04-18T06:51:57.900Z,8.50
2023-04-18T06:54:25.763Z,8.25
2023-04-18T06:56:54.457Z,8.30
2023-04-18T06:59:23.266Z,8.11
2023-04-18T07:01:50.939Z,8.33
2023-04-18T07:04:18.980Z,8.59
2023-04-18T07:06:47.034Z,8.64
2023-04-18T07:09:16.029Z,8.39
2023-04-18T07:11:43.761Z,8.66
2023-04-18T07:14:12.203Z,8.65
2023-04-18T07:16:40.202Z,8.44
2023-04-18T07:19:08.302Z,8.79
2023-04-18T07:21:37.659Z,8.57
2023-04-18T07:24:05.670Z,8.62
2023-04-18T07:26:34.857Z,8.48
2023-04-18T07:29:02.585Z,8.36
2023-04-18T07:31:31.523Z,8.61
2023-04-18T07:34:00.049Z,8.62
2023-04-18T07:36:28.618Z,8.59
2023-04-18T07:38:56.370Z,8.39
2023-04-18T07:41:24.050Z,8.41
2023-04-18T07:43:53.161Z,8.68
2023-04-18T07:46:21.013Z,8.67
2023-04-18T07:48:49.113Z,8.90
2023-04-18T07:51:17.001Z,9.05
2023-04-18T07:53:44.760Z,9.05
2023-04-18T07:56:14.495Z,8.75
2023-04-18T07:58:42.235Z,8.91
2023-04-18T08:01:15.152Z,8.96
2023-04-18T08:03:43.094Z,9.09
2023-04-18T08:06:11.145Z,9.50
2023-04-18T08:08:38.855Z,9.12
2023-04-18T08:11:06.830Z,9.32
2023-04-18T08:13:34.557Z,9.04
2023-04-18T08:16:03.003Z,9.01
2023-04-18T08:18:32.284Z,9.25
2023-04-18T08:21:00.131Z,9.06
2023-04-18T08:23:27.855Z,8.96
2023-04-18T08:25:55.572Z,8.64
2023-04-18T08:28:23.286Z,8.60
2023-04-18T08:30:51.951Z,8.90
2023-04-18T08:33:19.939Z,8.96
2023-04-18T08:35:50.342Z,9.27
2023-04-18T08:38:18.506Z,9.03
2023-04-18T08:40:46.779Z,9.02
2023-04-18T08:43:15.730Z,8.70
2023-04-18T08:45:44.491Z,9.25
2023-04-18T08:48:13.741Z,9.13
2023-04-18T08:50:41.641Z,9.12
2023-04-18T08:53:11.114Z,9.05
2023-04-18T08:55:39.087Z,8.94
2023-04-18T08:58:08.136Z,9.30
2023-04-18T09:00:36.066Z,9.20
2023-04-18T09:03:04.569Z,9.16
2023-04-18T09:05:33.005Z,9.38
2023-04-18T09:08:02.353Z,9.27
2023-04-18T09:10:33.813Z,9.38
2023-04-18T09:13:03.551Z,9.77
2023-04-18T09:15:32.359Z,9.64
2023-04-18T09:18:02.779Z,10.13
2023-04-18T09:20:37.763Z,10.24
2023-04-18T09:23:10.355Z,10.13
2023-04-18T09:25:46.337Z,10.69
2023-04-18T09:28:24.969Z,10.85
2023-04-18T09:30:53.390Z,10.54
2023-04-18T09:33:28.429Z,10.76
2023-04-18T09:35:56.260Z,10.58
2023-04-18T09:38:42.890Z,10.56
2023-04-18T09:41:13.326Z,10.52
2023-04-18T09:43:42.101Z,10.76
2023-04-18T09:46:09.990Z,10.91
2023-04-18T09:48:38.149Z,10.60
2023-04-18T09:51:08.283Z,11.12
2023-04-18T09:53:40.867Z,11.25
2023-04-18T09:56:15.591Z,11.06
2023-04-18T09:58:48.452Z,11.34
2023-04-18T10:01:16.782Z,11.09
2023-04-18T10:03:48.383Z,10.81
2023-04-18T10:06:17.343Z,10.68
2023-04-18T10:08:45.873Z,11.04
2023-04-18T10:11:15.616Z,10.77
2023-04-18T10:13:45.427Z,10.88
2023-04-18T10:16:14.407Z,10.78
2023-04-18T10:18:44.178Z,10.89
2023-04-18T10:21:12.580Z,10.87
2023-04-18T10:23:40.933Z,11.09
2023-04-18T10:26:09.064Z,11.30
2023-04-18T10:28:54.900Z,11.11
2023-04-18T10:31:24.268Z,10.71
2023-04-18T10:34:03.958Z,10.69
2023-04-18T10:36:32.605Z,10.54
2023-04-18T10:39:03.100Z,10.60
2023-04-18T10:41:31.820Z,10.49
2023-04-18T10:44:24.010Z,10.65
2023-04-18T10:47:31.852Z,10.99
2023-04-18T10:50:05.994Z,11.52
2023-04-18T10:52:34.674Z,11.69
2023-04-18T10:55:12.202Z,12.30
2023-04-18T10:57:41.819Z,11.91
2023-04-18T11:00:13.920Z,11.66
2023-04-18T11:02:48.774Z,12.10
2023-04-18T11:05:20.898Z,12.53
2023-04-18T11:07:49.569Z,13.30
2023-04-18T11:10:18.535Z,13.90
2023-04-18T11:12:46.794Z,13.96
2023-04-18T11:15:21.648Z,14.10
2023-04-18T11:17:58.052Z,15.32
2023-04-18T11:20:26.570Z,15.81
2023-04-18T11:22:55.632Z,15.29
2023-04-18T11:25:26.960Z,15.21
2023-04-18T11:27:56.094Z,14.95
2023-04-18T11:30:25.457Z,14.73
2023-04-18T11:32:54.201Z,14.71
2023-04-18T11:35:22.054Z,15.16
2023-04-18T11:37:51.157Z,15.16
2023-04-18T11:40:18.949Z,15.53
2023-04-18T11:42:46.623Z,14.97
2023-04-18T11:45:15.895Z,14.80
2023-04-18T11:47:47.315Z,14.78
2023-04-18T11:50:15.961Z,15.20
2023-04-18T11:52:44.070Z,15.21
2023-04-18T11:55:14.162Z,14.50
2023-04-18T11:57:42.549Z,14.90
2023-04-18T12:00:12.546Z,14.55
2023-04-18T12:02:43.155Z,14.33
2023-04-18T12:05:15.186Z,14.42
2023-04-18T12:07:45.260Z,14.05
2023-04-18T12:10:25.608Z,14.26
2023-04-18T12:12:54.457Z,13.43
2023-04-18T12:15:25.222Z,13.68
2023-04-18T12:17:53.153Z,13.83
2023-04-18T12:20:24.971Z,13.67
2023-04-18T12:22:54.921Z,13.81
2023-04-18T12:25:27.171Z,14.14
2023-04-18T12:27:57.876Z,13.97
2023-04-18T12:30:28.207Z,14.36
2023-04-18T12:32:56.978Z,14.23
2023-04-18T12:35:26.914Z,14.25
2023-04-18T12:37:56.605Z,14.15
2023-04-18T12:40:26.334Z,14.07
2023-04-18T12:42:55.588Z,14.17
2023-04-18T12:45:24.849Z,14.04
2023-04-18T12:47:53.467Z,14.17
2023-04-18T12:50:22.931Z,14.24
2023-04-18T12:52:53.667Z,14.17
2023-04-18T12:55:22.673Z,14.30
2023-04-18T12:57:54.221Z,14.71
2023-04-18T13:00:23.584Z,14.77
2023-04-18T13:02:52.505Z,14.75
2023-04-18T13:05:23.010Z,14.47
2023-04-18T13:07:56.375Z,14.64
2023-04-18T13:10:29.749Z,14.37
2023-04-18T13:12:57.717Z,14.21
2023-04-18T13:15:27.697Z,14.57
2023-04-18T13:17:57.007Z,14.42
2023-04-18T13:20:24.831Z,14.34
2023-04-18T13:22:53.913Z,14.29
2023-04-18T13:25:21.837Z,14.03
2023-04-18T13:27:50.087Z,14.17
2023-04-18T13:30:17.747Z,14.06
2023-04-18T13:32:46.204Z,14.38
2023-04-18T13:35:13.885Z,14.49
2023-04-18T13:37:41.514Z,14.11
2023-04-18T13:40:11.689Z,14.35
2023-04-18T13:42:40.026Z,14.34
2023-04-18T13:45:08.327Z,14.57
2023-04-18T13:47:36.623Z,14.20
2023-04-18T13:50:04.489Z,14.42
2023-04-18T13:52:32.071Z,14.61
2023-04-18T13:54:59.666Z,14.75
2023-04-18T13:57:31.871Z,14.60
2023-04-18T13:59:59.518Z,14.38
2023-04-18T14:02:27.471Z,14.31
2023-04-18T14:04:55.668Z,14.57
2023-04-18T14:07:23.533Z,14.36
2023-04-18T14:09:53.330Z,14.30
2023-04-18T14:12:21.789Z,14.47
2023-04-18T14:14:50.877Z,14.29
2023-04-18T14:17:18.569Z,13.88
2023-04-18T14:19:46.275Z,14.24
2023-04-18T14:22:13.960Z,14.15
2023-04-18T14:24:41.810Z,14.00
2023-04-18T14:27:09.562Z,14.28
2023-04-18T14:29:37.269Z,14.30
2023-04-18T14:32:07.226Z,14.27
2023-04-18T14:34:36.614Z,14.26
2023-04-18T14:37:05.326Z,14.20
2023-04-18T14:39:33.035Z,14.23
2023-04-18T14:42:01.388Z,14.29
2023-04-18T14:44:30.654Z,14.39
2023-04-18T14:46:58.449Z,14.56
2023-04-18T14:49:27.808Z,14.22
2023-04-18T14:51:56.023Z,14.40
2023-04-18T14:54:23.885Z,14.30
2023-04-18T14:56:51.618Z,14.43
2023-04-18T14:59:19.525Z,14.26
2023-04-18T15:01:47.604Z,14.34
2023-04-18T15:04:15.920Z,14.44
2023-04-18T15:06:45.522Z,14.64
2023-04-18T15:09:15.466Z,14.77
2023-04-18T15:11:43.127Z,14.73
2023-04-18T15:14:10.970Z,14.94
2023-04-18T15:16:40.822Z,14.83
2023-04-18T15:19:08.679Z,14.89
2023-04-18T15:21:36.505Z,14.73
2023-04-18T15:24:06.021Z,14.72
2023-04-18T15:26:33.839Z,14.73
2023-04-18T15:29:03.693Z,14.69
2023-04-18T15:31:31.616Z,14.76
2023-04-18T15:33:59.339Z,14.71
2023-04-18T15:36:27.715Z,14.66
2023-04-18T15:38:55.400Z,14.43
2023-04-18T15:41:24.769Z,14.52
2023-04-18T15:43:53.589Z,14.63
2023-04-18T15:46:21.388Z,14.51
2023-04-18T15:48:49.205Z,14.81
2023-04-18T15:51:17.275Z,14.89
2023-04-18T15:53:44.998Z,14.72
2023-04-18T15:56:13.749Z,14.55
2023-04-18T15:58:42.843Z,14.65
2023-04-18T16:01:13.148Z,14.67
2023-04-18T16:03:41.205Z,14.70
2023-04-18T16:06:10.803Z,14.62
2023-04-18T16:08:39.005Z,14.88
2023-04-18T16:11:07.649Z,14.93
2023-04-18T16:13:38.216Z,15.02
2023-04-18T16:16:08.250Z,14.72
2023-04-18T16:18:35.940Z,14.77
2023-04-18T16:21:03.626Z,14.84
2023-04-18T16:23:32.162Z,14.63
2023-04-18T16:25:59.886Z,14.56
2023-04-18T16:28:27.706Z,14.51
2023-04-18T16:30:55.901Z,14.50
2023-04-18T16:33:26.311Z,14.61
2023-04-18T16:35:54.391Z,14.57
2023-04-18T16:38:23.520Z,14.50
2023-04-18T16:40:51.200Z,14.38
2023-04-18T16:43:18.878Z,14.57
2023-04-18T16:45:46.574Z,14.75
2023-04-18T16:48:14.171Z,14.58
2023-04-18T16:50:45.582Z,14.69
2023-04-18T16:53:13.371Z,14.72
2023-04-18T16:55:41.953Z,14.85
2023-04-18T16:58:09.756Z,14.76
2023-04-18T17:00:38.611Z,14.71
2023-04-18T17:03:07.794Z,14.90
2023-04-18T17:05:35.589Z,14.98
2023-04-18T17:08:04.867Z,14.79
2023-04-18T17:10:32.621Z,14.86
2023-04-18T17:13:00.884Z,14.84
2023-04-18T17:15:28.643Z,14.73
2023-04-18T17:18:00.063Z,14.78
2023-04-18T17:20:28.277Z,14.97
2023-04-18T17:22:57.216Z,14.90
2023-04-18T17:25:26.312Z,14.68
2023-04-18T17:27:54.078Z,14.56
2023-04-18T17:30:21.964Z,14.52
2023-04-18T17:32:51.086Z,14.71
2023-04-18T17:35:18.930Z,14.66
2023-04-18T17:37:47.728Z,14.54
2023-04-18T17:40:15.706Z,14.57
2023-04-18T17:42:45.029Z,14.50
2023-04-18T17:45:12.739Z,14.56
2023-04-18T17:47:41.113Z,14.51
2023-04-18T17:50:09.940Z,14.28
2023-04-18T17:52:38.545Z,14.48
2023-04-18T17:55:09.626Z,14.48
2023-04-18T17:57:37.315Z,14.29
2023-04-18T18:00:11.833Z,13.86
2023-04-18T18:02:40.582Z,13.94
2023-04-18T18:05:12.983Z,13.76
2023-04-18T18:07:42.992Z,13.76
2023-04-18T18:10:11.786Z,13.56
2023-04-18T18:12:40.007Z,13.53
2023-04-18T18:15:10.838Z,13.41
2023-04-18T18:17:39.046Z,13.48
2023-04-18T18:20:09.887Z,13.34
2023-04-18T18:22:37.839Z,13.40
2023-04-18T18:25:06.445Z,13.38
2023-04-18T18:27:34.996Z,13.28
2023-04-18T18:30:03.230Z,13.04
2023-04-18T18:32:32.490Z,13.07
2023-04-18T18:35:01.758Z,13.07
2023-04-18T18:37:29.618Z,13.13
2023-04-18T18:39:58.848Z,13.05
2023-04-18T18:42:26.885Z,12.92
2023-04-18T18:44:54.790Z,12.95
2023-04-18T18:47:22.914Z,12.99
2023-04-18T18:49:52.316Z,12.87
2023-04-18T18:52:20.116Z,12.85
2023-04-18T18:54:47.922Z,12.68
2023-04-18T18:57:15.654Z,12.87
2023-04-18T18:59:43.374Z,12.65
2023-04-18T19:02:11.610Z,12.58
2023-04-18T19:04:39.605Z,12.70
2023-04-18T19:07:08.805Z,12.81
2023-04-18T19:09:36.972Z,12.54
2023-04-18T19:12:05.843Z,12.41
2023-04-18T19:14:33.938Z,12.59
2023-04-18T19:17:01.837Z,12.47
2023-04-18T19:19:29.811Z,12.51
2023-04-18T19:21:58.278Z,12.42
2023-04-18T19:24:27.518Z,12.53
2023-04-18T19:26:55.307Z,12.75
2023-04-18T19:29:24.100Z,12.77
2023-04-18T19:31:51.958Z,12.64
2023-04-18T19:34:19.966Z,12.64
2023-04-18T19:36:47.782Z,12.41
2023-04-18T19:39:16.427Z,12.29
2023-04-18T19:41:46.121Z,12.26
2023-04-18T19:44:13.955Z,12.37
2023-04-18T19:46:41.727Z,12.32
2023-04-18T19:49:09.417Z,12.26
2023-04-18T19:51:37.125Z,12.37
2023-04-18T19:54:05.109Z,12.31
2023-04-18T19:56:33.175Z,12.24
2023-04-18T19:59:02.620Z,12.09
2023-04-18T20:01:30.725Z,12.15
2023-04-18T20:04:00.244Z,12.27
2023-04-18T20:06:28.590Z,12.14
2023-04-18T20:08:56.524Z,12.02
2023-04-18T20:11:26.094Z,12.11
2023-04-18T20:13:55.895Z,11.92
2023-04-18T20:16:25.001Z,11.85
2023-04-18T20:18:54.801Z,12.01
2023-04-18T20:21:22.939Z,11.94
2023-04-18T20:23:51.104Z,11.96
2023-04-18T20:26:19.700Z,11.87
2023-04-18T20:28:47.680Z,11.78
2023-04-18T20:31:15.600Z,11.68
2023-04-18T20:33:44.753Z,11.84
2023-04-18T20:36:14.026Z,11.86
2023-04-18T20:38:41.720Z,11.74
2023-04-18T20:41:10.893Z,11.78
2023-04-18T20:43:39.079Z,11.66
2023-04-18T20:46:07.109Z,11.85
2023-04-18T20:48:34.965Z,11.63
2023-04-18T20:51:04.130Z,11.70
2023-04-18T20:53:32.131Z,11.55
2023-04-18T20:56:01.916Z,11.85
2023-04-18T20:58:30.302Z,11.80
2023-04-18T21:00:57.980Z,11.86
2023-04-18T21:03:26.202Z,11.67
2023-04-18T21:05:54.083Z,11.66
2023-04-18T21:08:23.229Z,11.73
2023-04-18T21:10:51.044Z,11.98
2023-04-18T21:13:18.824Z,11.98
2023-04-18T21:15:46.895Z,11.76
2023-04-18T21:18:14.622Z,11.85
2023-04-18T21:20:42.617Z,12.10
2023-04-18T21:23:10.318Z,11.93
2023-04-18T21:25:39.467Z,11.94
2023-04-18T21:28:07.911Z,11.93
2023-04-18T21:30:35.647Z,11.92
2023-04-18T21:33:03.561Z,11.98
2023-04-18T21:35:31.330Z,11.92
2023-04-18T21:37:59.343Z,12.03
2023-04-18T21:40:30.591Z,11.98
2023-04-18T21:42:59.728Z,11.94
2023-04-18T21:45:28.257Z,12.00
2023-04-18T21:47:55.975Z,11.86
2023-04-18T21:50:24.333Z,11.80
2023-04-18T21:52:51.931Z,11.85
2023-04-18T21:55:19.666Z,11.91
2023-04-18T21:57:47.419Z,11.84
2023-04-18T22:00:17.440Z,11.67
2023-04-18T22:02:45.169Z,11.86
2023-04-18T22:05:13.917Z,11.77
2023-04-18T22:07:50.635Z,11.45
2023-04-18T22:10:25.655Z,11.75
2023-04-18T22:12:53.930Z,11.91
2023-04-18T22:15:23.884Z,11.79
2023-04-18T22:17:51.713Z,11.61
2023-04-18T22:20:19.578Z,11.74
2023-04-18T22:22:47.209Z,11.86
2023-04-18T22:25:14.903Z,11.77
2023-04-18T22:27:43.089Z,11.82
2023-04-18T22:30:12.030Z,11.51
2023-04-18T22:32:41.673Z,11.39
2023-04-18T22:35:10.289Z,11.51
2023-04-18T22:37:37.936Z,11.60
2023-04-18T22:40:06.535Z,11.56
2023-04-18T22:42:35.186Z,11.68
2023-04-18T22:45:04.844Z,11.74
2023-04-18T22:47:32.601Z,11.60
2023-04-18T22:50:01.692Z,11.80
2023-04-18T22:52:30.516Z,11.64
2023-04-18T22:54:58.253Z,11.64
2023-04-18T22:57:25.961Z,11.55
2023-04-18T22:59:53.606Z,11.41
2023-04-18T23:02:21.420Z,11.58
2023-04-18T23:04:49.534Z,11.45
2023-04-18T23:07:18.858Z,11.52
2023-04-18T23:09:46.632Z,11.35
2023-04-18T23:12:14.332Z,11.35
2023-04-18T23:14:42.959Z,11.25
2023-04-18T23:17:10.610Z,11.10
2023-04-18T23:19:38.235Z,11.10
2023-04-18T23:22:05.989Z,11.02
2023-04-18T23:24:35.007Z,11.13
2023-04-18T23:27:03.063Z,10.82
2023-04-18T23:29:30.774Z,11.06
2023-04-18T23:31:58.581Z,11.01
2023-04-18T23:34:26.399Z,11.14
2023-04-18T23:36:54.055Z,11.02
2023-04-18T23:39:21.840Z,10.96
2023-04-18T23:41:50.954Z,11.01
2023-04-18T23:44:18.632Z,10.95
2023-04-18T23:46:46.305Z,11.18
2023-04-18T23:49:14.099Z,11.18
2023-04-18T23:51:42.108Z,11.01
2023-04-18T23:54:09.787Z,11.17
2023-04-18T23:56:37.550Z,11.15
2023-04-18T23:59:07.169Z,11.29
